Time;durP1;ratioP1;P1;durP2;ratioP2;P2;SDS_P1;SDS_P2;PMS_P1;PMS_P2;Temp;Humidity;BMP_temperature;BMP_pressure;BME280_temperature;BME280_humidity;BME280_pressure;Samples;Min_cycle;Max_cycle;Signal;HPM_P1;HPM_P2
2022/01/21 00:01:24;;;;;;;9.55;1.50;;;;;;;2.45;76.63;103538.88;5062330;28;20082;-55
2022/01/21 00:03:49;;;;;;;6.03;1.05;;;;;;;2.44;76.95;103528.41;5067674;28;20036;-58
2022/01/21 00:06:15;;;;;;;3.55;0.90;;;;;;;2.39;77.56;103531.69;5066105;28;20021;-57
2022/01/21 00:08:44;;;;;;;5.97;1.13;;;;;;;2.34;78.09;103532.28;5066833;28;20479;-57
2022/01/21 00:11:10;;;;;;;11.20;1.27;;;;;;;2.29;78.95;103552.94;5067227;28;20071;-57
2022/01/21 00:13:37;;;;;;;6.43;1.33;;;;;;;2.20;79.42;103555.97;5067058;28;20587;-57
2022/01/21 00:16:08;;;;;;;8.50;1.38;;;;;;;2.10;79.95;103543.38;5065445;28;20150;-55
2022/01/21 00:18:35;;;;;;;7.75;1.15;;;;;;;1.97;80.58;103545.44;5066481;28;20500;-57
2022/01/21 00:31:57;;;;;;;7.20;1.42;;;;;;;1.56;82.67;103562.59;5065572;28;20545;-56
2022/01/21 00:34:22;;;;;;;7.18;1.15;;;;;;;1.50;82.81;103564.06;5065915;28;20025;-57
2022/01/21 00:36:48;;;;;;;13.15;1.25;;;;;;;1.47;83.33;103565.63;5065402;28;20218;-56
2022/01/21 00:39:13;;;;;;;7.88;1.83;;;;;;;1.45;83.54;103562.97;5049006;28;20029;-59
2022/01/21 00:41:54;;;;;;;15.52;1.70;;;;;;;1.46;83.78;103554.34;5071465;28;20020;-58
2022/01/21 00:44:19;;;;;;;6.43;1.30;;;;;;;1.46;83.94;103545.66;5086805;28;20036;-61
2022/01/21 00:46:44;;;;;;;11.20;1.80;;;;;;;1.42;83.92;103544.63;5078990;28;20267;-59
2022/01/21 00:49:10;;;;;;;15.25;2.22;;;;;;;1.43;84.15;103549.00;5067236;28;20017;-58
2022/01/21 00:51:36;;;;;;;17.15;1.50;;;;;;;1.52;84.06;103556.34;5064678;28;20475;-57
2022/01/21 00:54:01;;;;;;;14.80;2.50;;;;;;;1.60;83.58;103555.00;5066075;28;20028;-55
2022/01/21 00:56:26;;;;;;;11.73;2.70;;;;;;;1.73;83.24;103559.09;5066547;28;20036;-57
2022/01/21 00:58:52;;;;;;;13.77;2.08;;;;;;;1.85;82.43;103568.28;5066356;28;20027;-58
2022/01/21 01:01:17;;;;;;;13.65;2.03;;;;;;;1.90;81.82;103572.00;5065434;28;20078;-58
2022/01/21 01:03:42;;;;;;;8.35;1.88;;;;;;;1.96;81.43;103566.19;5066312;28;20028;-60
2022/01/21 01:06:08;;;;;;;9.73;1.55;;;;;;;1.96;81.13;103571.38;5064166;28;20060;-56
2022/01/21 01:08:33;;;;;;;18.95;2.40;;;;;;;1.95;81.05;103575.69;5066362;28;20023;-57
2022/01/21 01:11:15;;;;;;;11.38;2.97;;;;;;;1.97;81.13;103568.84;5065240;28;20047;-57
2022/01/21 01:21:43;;;;;;;16.73;2.35;;;;;;;1.86;80.90;103560.53;5065320;28;20094;-59
2022/01/21 01:29:18;;;;;;;14.65;1.80;;;;;;;1.79;81.31;103557.56;5046477;28;20094;-58
2022/01/21 01:31:44;;;;;;;15.75;2.53;;;;;;;1.74;81.16;103547.84;5046251;28;20601;-58
2022/01/21 01:34:09;;;;;;;7.10;1.25;;;;;;;1.73;81.21;103547.78;5045873;28;20064;-57
2022/01/21 01:36:35;;;;;;;14.35;1.75;;;;;;;1.67;81.39;103550.09;5045271;28;20028;-58
2022/01/21 01:41:57;;;;;;;16.52;1.92;;;;;;;1.61;81.19;103558.50;5061856;28;20540;-58
2022/01/21 01:49:50;;;;;;;16.52;1.65;;;;;;;1.49;82.02;103556.19;5071649;28;20047;-60
2022/01/21 01:52:17;;;;;;;14.60;1.92;;;;;;;1.45;82.13;103555.19;5089803;28;20020;-57
2022/01/21 01:54:50;;;;;;;8.82;1.70;;;;;;;1.42;82.29;103551.53;5070563;28;20036;-57
2022/01/21 01:57:15;;;;;;;12.77;2.03;;;;;;;1.40;82.71;103559.25;5076638;28;20475;-58
2022/01/21 01:59:40;;;;;;;9.48;1.27;;;;;;;1.42;82.44;103556.72;5068608;28;20028;-57
2022/01/21 02:02:12;;;;;;;8.57;1.67;;;;;;;1.45;82.70;103552.59;5083583;28;20032;-58
2022/01/21 02:04:38;;;;;;;9.18;1.10;;;;;;;1.51;82.57;103546.78;5089319;28;20031;-61
2022/01/21 02:07:03;;;;;;;6.90;1.40;;;;;;;1.54;82.55;103553.81;5070058;28;20028;-61
2022/01/21 02:09:29;;;;;;;14.32;2.08;;;;;;;1.54;82.57;103554.72;5089407;28;20031;-57
2022/01/21 02:11:55;;;;;;;10.82;1.40;;;;;;;1.53;82.60;103554.66;5089350;28;20048;-58
2022/01/21 02:14:26;;;;;;;10.98;1.67;;;;;;;1.50;82.60;103551.06;5077424;28;20048;-57
2022/01/21 02:22:03;;;;;;;9.88;1.48;;;;;;;1.47;82.68;103550.03;5067454;28;20132;-57
2022/01/21 02:24:41;;;;;;;19.60;1.67;;;;;;;1.47;82.47;103565.63;5069192;28;20111;-56
2022/01/21 02:27:06;;;;;;;6.15;0.82;;;;;;;1.47;82.53;103560.41;5068304;28;20033;-56
2022/01/21 02:29:43;;;;;;;15.07;1.40;;;;;;;1.47;82.54;103561.31;5069119;28;20019;-58
2022/01/21 02:32:08;;;;;;;9.85;1.08;;;;;;;1.45;82.40;103557.78;5068173;28;20049;-58
2022/01/21 02:34:33;;;;;;;7.68;1.35;;;;;;;1.42;82.71;103551.53;5068629;28;20513;-57
2022/01/21 02:36:59;;;;;;;7.38;1.05;;;;;;;1.36;82.72;103549.53;5068160;28;20486;-56
2022/01/21 02:39:24;;;;;;;10.90;1.77;;;;;;;1.38;82.81;103543.59;5074592;28;20520;-56
2022/01/21 02:41:50;;;;;;;12.20;1.63;;;;;;;1.43;83.09;103549.00;5088512;28;20107;-58
2022/01/21 02:44:17;;;;;;;16.38;1.55;;;;;;;1.48;83.13;103557.91;5087221;28;20032;-57
2022/01/21 02:46:44;;;;;;;6.38;1.20;;;;;;;1.57;82.92;103549.69;5088046;28;20050;-58
2022/01/21 02:49:10;;;;;;;6.97;1.08;;;;;;;1.69;82.38;103551.97;5077492;28;20117;-57
2022/01/21 02:51:35;;;;;;;9.02;1.20;;;;;;;1.70;81.79;103547.63;5067667;28;20111;-57
2022/01/21 02:54:04;;;;;;;2.65;0.80;;;;;;;1.59;81.69;103552.31;5067095;28;20028;-57
2022/01/21 02:56:35;;;;;;;4.82;0.77;;;;;;;1.49;81.79;103548.41;5068806;28;20386;-61
2022/01/21 02:59:00;;;;;;;8.60;1.30;;;;;;;1.36;82.25;103553.00;5068522;28;20386;-59
2022/01/21 03:01:26;;;;;;;7.20;1.23;;;;;;;1.29;82.54;103547.47;5066116;28;20025;-58
2022/01/21 03:03:53;;;;;;;3.83;0.88;;;;;;;1.18;83.09;103542.63;5068858;28;20028;-56
2022/01/21 03:06:21;;;;;;;7.88;1.10;;;;;;;1.17;83.13;103542.56;5086952;28;20024;-59
2022/01/21 03:08:48;;;;;;;3.53;0.85;;;;;;;1.17;83.30;103545.16;5087138;28;20119;-58
2022/01/21 03:11:14;;;;;;;8.75;0.90;;;;;;;1.17;83.46;103540.81;5088534;28;20138;-59
2022/01/21 03:13:40;;;;;;;7.90;1.27;;;;;;;1.15;83.76;103542.47;5088488;28;20115;-57
2022/01/21 03:16:05;;;;;;;10.90;1.23;;;;;;;1.15;83.79;103544.16;5081945;28;20594;-61
2022/01/21 03:18:31;;;;;;;5.43;1.27;;;;;;;1.12;83.73;103548.38;5068030;28;20107;-59
2022/01/21 03:20:56;;;;;;;7.78;1.77;;;;;;;1.11;83.99;103548.31;5066053;28;20032;-58
2022/01/21 03:23:23;;;;;;;7.32;1.02;;;;;;;1.13;84.08;103551.88;5067971;28;20036;-58
2022/01/21 03:25:49;;;;;;;9.20;1.30;;;;;;;1.10;84.05;103551.72;5067785;28;20020;-57
2022/01/21 03:28:17;;;;;;;5.72;1.15;;;;;;;1.13;84.15;103554.47;5066862;28;20604;-60
2022/01/21 03:30:42;;;;;;;7.90;1.13;;;;;;;1.17;84.51;103545.16;5068151;28;20025;-56
2022/01/21 03:33:07;;;;;;;10.50;1.42;;;;;;;1.17;84.22;103545.16;5066616;28;20124;-59
2022/01/21 03:35:33;;;;;;;13.38;1.52;;;;;;;1.18;84.55;103542.63;5067010;28;20490;-57
2022/01/21 03:37:58;;;;;;;6.28;1.17;;;;;;;1.12;84.46;103542.31;5067003;28;20062;-57
2022/01/21 03:40:24;;;;;;;8.93;1.10;;;;;;;1.09;84.27;103545.63;5078110;28;20486;-57
2022/01/21 03:42:49;;;;;;;6.30;1.10;;;;;;;1.06;84.38;103549.81;5087437;28;20024;-64
2022/01/21 03:45:15;;;;;;;7.78;1.00;;;;;;;0.96;84.35;103551.06;5087210;28;20035;-58
2022/01/21 03:47:42;;;;;;;9.85;1.60;;;;;;;0.90;84.52;103556.81;5079782;28;20034;-56
2022/01/21 03:50:24;;;;;;;10.10;1.10;;;;;;;0.84;84.79;103562.59;5071746;28;20467;-57
2022/01/21 03:52:50;;;;;;;7.25;0.80;;;;;;;0.80;85.10;103564.94;5067010;28;20025;-57
2022/01/21 03:55:16;;;;;;;10.13;1.65;;;;;;;0.75;85.30;103568.22;5066872;28;20028;-59
2022/01/21 03:57:41;;;;;;;13.20;1.38;;;;;;;0.70;85.06;103561.91;5048459;28;20038;-56
2022/01/21 04:00:09;;;;;;;6.85;0.95;;;;;;;0.69;85.38;103572.22;5065660;28;20449;-57
2022/01/21 04:02:35;;;;;;;4.40;0.83;;;;;;;0.66;85.53;103575.50;5048174;28;20029;-60
2022/01/21 04:05:00;;;;;;;12.70;1.30;;;;;;;0.58;85.30;103577.72;5046278;28;20838;-59
2022/01/21 04:07:26;;;;;;;6.78;1.20;;;;;;;0.58;85.45;103576.84;5046843;28;20032;-57
2022/01/21 04:09:51;;;;;;;11.82;1.00;;;;;;;0.62;85.63;103573.56;5045913;28;20443;-60
2022/01/21 04:12:17;;;;;;;11.85;1.30;;;;;;;0.63;85.97;103572.75;5047131;28;20045;-56
2022/01/21 04:14:42;;;;;;;7.80;1.00;;;;;;;0.62;85.94;103574.47;5046471;28;20028;-58
2022/01/21 04:17:08;;;;;;;6.93;1.13;;;;;;;0.66;86.42;103570.31;5066595;28;20478;-58
2022/01/21 04:19:33;;;;;;;8.93;0.98;;;;;;;0.71;86.67;103576.66;5064809;28;20070;-59
2022/01/21 04:21:59;;;;;;;10.85;1.15;;;;;;;0.75;86.92;103562.13;5031257;28;20070;-59
2022/01/21 04:24:24;;;;;;;10.10;1.00;;;;;;;0.86;86.44;103567.88;5066481;28;20460;-59
2022/01/21 04:26:50;;;;;;;14.48;1.60;;;;;;;0.94;86.64;103558.78;5066903;28;20025;-57
2022/01/21 04:29:15;;;;;;;11.75;1.05;;;;;;;0.98;86.45;103560.69;5086889;28;20052;-58
2022/01/21 04:31:40;;;;;;;8.98;1.80;;;;;;;1.03;86.03;103557.44;5086612;28;20082;-58
2022/01/21 04:34:06;;;;;;;13.65;1.40;;;;;;;1.10;85.97;103575.09;5086711;28;20032;-59
2022/01/21 04:36:31;;;;;;;9.75;1.25;;;;;;;1.14;85.63;103577.03;5085773;28;20031;-58
2022/01/21 04:38:59;;;;;;;9.93;1.30;;;;;;;1.11;85.35;103577.78;5068526;28;20032;-59
2022/01/21 04:47:16;;;;;;;8.38;1.10;;;;;;;1.05;85.28;103579.19;5061257;28;20024;-59
2022/01/21 04:47:20;;;;;;;11.35;1.17;;;;;;;0.95;85.40;103578.72;5072523;28;20402;-56
2022/01/21 04:49:46;;;;;;;12.07;1.02;;;;;;;0.92;85.61;103570.78;5065011;28;20514;-58
2022/01/21 04:52:12;;;;;;;10.15;1.73;;;;;;;0.93;85.66;103569.94;5066505;28;20154;-59
2022/01/21 04:54:37;;;;;;;14.07;1.60;;;;;;;0.91;85.74;103574.19;5065380;28;20099;-59
2022/01/21 04:57:04;;;;;;;9.48;1.60;;;;;;;0.90;85.76;103569.78;5064741;28;20075;-60
2022/01/21 04:59:30;;;;;;;10.35;1.58;;;;;;;0.90;85.90;103572.38;5065556;28;20036;-58
2022/01/21 05:01:56;;;;;;;6.75;1.77;;;;;;;0.93;85.97;103572.53;5065223;28;20021;-58
2022/01/21 05:04:21;;;;;;;13.55;1.42;;;;;;;0.93;86.28;103567.34;5065681;28;20029;-60
2022/01/21 05:06:49;;;;;;;15.57;1.40;;;;;;;0.97;86.08;103574.47;5066492;28;20032;-59
2022/01/21 05:09:18;;;;;;;12.57;1.83;;;;;;;1.00;86.03;103566.84;5067410;28;20075;-59
2022/01/21 05:11:45;;;;;;;13.95;1.48;;;;;;;1.00;86.03;103558.19;5069123;28;20086;-58
2022/01/21 05:14:23;;;;;;;17.20;1.60;;;;;;;0.98;85.86;103554.59;5066322;28;20147;-59
2022/01/21 05:16:51;;;;;;;20.30;1.70;;;;;;;0.96;85.60;103564.91;5065538;28;20029;-59
2022/01/21 05:19:18;;;;;;;18.15;1.50;;;;;;;1.01;85.58;103567.75;5065572;28;20024;-61
2022/01/21 05:21:48;;;;;;;14.68;1.42;;;;;;;1.03;85.70;103560.03;5066318;28;20714;-59
2022/01/21 05:24:16;;;;;;;17.33;2.17;;;;;;;1.01;85.58;103559.97;5065646;28;20660;-58
2022/01/21 05:26:52;;;;;;;9.18;1.27;;;;;;;0.98;85.53;103563.28;5068794;28;20495;-59
2022/01/21 05:29:18;;;;;;;13.45;1.50;;;;;;;1.07;85.56;103555.06;5054681;28;20013;-59
2022/01/21 05:31:43;;;;;;;7.57;1.38;;;;;;;1.11;85.55;103553.50;5069330;28;20029;-59
2022/01/21 05:34:08;;;;;;;13.73;1.55;;;;;;;1.20;85.44;103555.69;5069459;28;20495;-59
2022/01/21 05:36:37;;;;;;;8.30;1.45;;;;;;;1.38;84.70;103561.78;5068779;28;20044;-60
2022/01/21 05:39:03;;;;;;;9.77;1.27;;;;;;;1.57;83.35;103551.38;5069101;28;20321;-58
2022/01/21 05:41:28;;;;;;;6.95;1.08;;;;;;;1.71;82.57;103557.22;5054012;28;20491;-58
2022/01/21 05:44:01;;;;;;;10.77;1.38;;;;;;;1.82;81.89;103568.13;5075252;28;20119;-58
2022/01/21 05:46:54;;;;;;;10.60;1.38;;;;;;;1.89;81.50;103559.78;5068953;28;20028;-60
2022/01/21 05:49:15;;;;;;;7.57;1.30;;;;;;;1.96;81.11;103555.78;5067955;28;20083;-59
2022/01/21 05:51:41;;;;;;;9.65;1.30;;;;;;;1.93;81.53;103556.53;5068284;28;20036;-58
2022/01/21 05:54:10;;;;;;;9.02;1.45;;;;;;;2.06;81.15;103562.28;5069395;28;20024;-59
2022/01/21 05:56:37;;;;;;;6.83;1.50;;;;;;;2.11;81.24;103560.78;5068651;28;20521;-61
2022/01/21 05:59:04;;;;;;;8.45;1.98;;;;;;;2.16;80.85;103566.22;5069367;28;20459;-59
2022/01/21 06:01:29;;;;;;;9.20;1.50;;;;;;;2.16;80.91;103580.09;5068473;28;20052;-60
2022/01/21 06:03:55;;;;;;;9.38;1.95;;;;;;;1.98;81.97;103582.72;5051375;28;20060;-59
2022/01/21 06:06:20;;;;;;;12.98;1.83;;;;;;;2.03;81.65;103570.84;5067837;28;20084;-59
2022/01/21 06:08:45;;;;;;;6.93;1.38;;;;;;;2.01;81.72;103575.97;5068810;28;20045;-59
2022/01/21 06:11:11;;;;;;;6.20;1.27;;;;;;;1.97;81.95;103571.44;5069314;28;20052;-60
2022/01/21 06:13:37;;;;;;;6.85;1.52;;;;;;;1.96;82.15;103577.44;5066635;28;20040;-60
2022/01/21 06:16:03;;;;;;;10.48;1.73;;;;;;;1.95;82.61;103579.97;5086153;28;20649;-58
2022/01/21 06:18:28;;;;;;;11.25;1.50;;;;;;;2.00;83.08;103583.69;5087984;28;20108;-59
2022/01/21 06:20:53;;;;;;;7.53;1.27;;;;;;;2.11;83.17;103581.59;5088221;28;20054;-59
2022/01/21 06:23:19;;;;;;;10.90;1.55;;;;;;;2.16;82.86;103580.09;5071300;28;20032;-59
2022/01/21 06:25:45;;;;;;;11.18;1.75;;;;;;;2.19;82.67;103584.53;5088919;28;20020;-59
2022/01/21 06:28:11;;;;;;;17.48;2.45;;;;;;;2.26;82.45;103594.44;5075529;28;20055;-60
2022/01/21 06:30:37;;;;;;;7.25;1.52;;;;;;;2.31;82.09;103586.78;5068234;28;20122;-60
2022/01/21 06:33:02;;;;;;;9.60;1.85;;;;;;;2.33;82.22;103587.78;5067977;28;20037;-59
2022/01/21 06:35:27;;;;;;;12.73;1.58;;;;;;;2.37;82.03;103600.09;5067795;28;20066;-59
2022/01/21 06:37:53;;;;;;;15.98;1.60;;;;;;;2.43;82.47;103599.47;5066941;28;20051;-59
2022/01/21 06:40:20;;;;;;;7.32;1.67;;;;;;;2.50;82.44;103597.22;5072362;28;20020;-59
2022/01/21 06:42:46;;;;;;;10.43;1.23;;;;;;;2.57;82.51;103597.50;5088603;28;20536;-58
2022/01/21 06:45:12;;;;;;;17.48;2.55;;;;;;;2.62;82.32;103601.22;5088186;28;20475;-60
2022/01/21 06:47:37;;;;;;;9.98;1.88;;;;;;;2.69;82.17;103590.22;5062662;28;20032;-57
2022/01/21 06:50:03;;;;;;;17.38;2.15;;;;;;;2.76;82.16;103594.88;5056914;28;20048;-54
2022/01/21 06:52:29;;;;;;;16.85;1.95;;;;;;;2.91;81.86;103604.16;5057062;28;20021;-54
2022/01/21 06:54:55;;;;;;;16.60;1.88;;;;;;;2.93;81.88;103592.13;5056574;28;20467;-54
2022/01/21 06:57:20;;;;;;;14.45;1.88;;;;;;;2.98;81.97;103593.19;5057129;28;20062;-55
2022/01/21 06:59:47;;;;;;;14.55;1.60;;;;;;;2.98;82.09;103595.78;5058423;28;20132;-56
2022/01/21 07:02:12;;;;;;;17.25;2.33;;;;;;;2.94;81.68;103604.31;5056842;28;20017;-56
2022/01/21 07:04:38;;;;;;;16.70;2.47;;;;;;;2.84;81.78;103602.13;5057104;28;20482;-55
2022/01/21 07:07:04;;;;;;;11.63;1.40;;;;;;;2.71;82.17;103590.31;5059326;28;20123;-56
2022/01/21 07:09:29;;;;;;;11.85;2.05;;;;;;;2.50;82.17;103592.00;5057837;28;20046;-56
2022/01/21 07:11:55;;;;;;;15.32;2.05;;;;;;;2.34;82.78;103590.44;5057877;28;20041;-56
2022/01/21 07:14:21;;;;;;;16.23;2.20;;;;;;;2.22;83.63;103595.06;5048356;28;20095;-58
2022/01/21 07:16:47;;;;;;;5.70;1.73;;;;;;;2.17;84.05;103594.91;5057559;28;20075;-55
2022/01/21 07:19:13;;;;;;;15.25;1.83;;;;;;;2.14;84.49;103605.16;5059345;28;20020;-54
2022/01/21 07:21:39;;;;;;;9.80;2.00;;;;;;;2.08;84.40;103607.47;5056681;28;20037;-56
2022/01/21 07:24:04;;;;;;;7.25;1.50;;;;;;;1.96;84.57;103608.66;5055956;28;20584;-55
2022/01/21 07:26:30;;;;;;;8.75;1.98;;;;;;;1.91;85.07;103610.16;5048131;28;20123;-51
2022/01/21 07:28:55;;;;;;;7.20;1.27;;;;;;;1.84;85.31;103614.16;5049450;28;20021;-55
2022/01/21 07:31:20;;;;;;;15.45;1.70;;;;;;;1.76;85.46;103619.03;5062452;28;20467;-56
2022/01/21 07:33:46;;;;;;;19.15;1.98;;;;;;;1.71;85.35;103612.72;5047449;28;20036;-58
2022/01/21 07:36:11;;;;;;;11.38;1.67;;;;;;;1.65;85.49;103617.59;5047194;28;20384;-54
2022/01/21 07:38:38;;;;;;;11.27;3.45;;;;;;;1.62;85.69;103617.44;5055667;28;20016;-60
2022/01/21 07:41:04;;;;;;;10.30;1.90;;;;;;;1.58;85.96;103616.44;5054918;28;20029;-57
2022/01/21 07:43:29;;;;;;;11.57;2.35;;;;;;;1.60;86.42;103613.91;5047002;28;20021;-59
2022/01/21 07:45:55;;;;;;;13.07;2.40;;;;;;;1.60;86.31;103616.50;5055570;28;20048;-56
2022/01/21 07:48:20;;;;;;;11.40;2.40;;;;;;;1.55;86.79;103617.97;5057864;28;20100;-57
2022/01/21 07:50:45;;;;;;;18.60;2.83;;;;;;;1.46;87.26;103621.91;5066595;28;20038;-57
2022/01/21 07:53:10;;;;;;;14.73;2.55;;;;;;;1.45;87.62;103619.25;5066784;28;20502;-58
2022/01/21 07:55:36;;;;;;;14.98;2.83;;;;;;;1.44;87.59;103623.53;5066597;28;20544;-54
2022/01/21 07:58:03;;;;;;;6.95;2.40;;;;;;;1.41;88.20;103615.59;5040943;28;20031;-56
2022/01/21 08:00:28;;;;;;;8.73;2.85;;;;;;;1.47;88.04;103620.19;5038205;28;20024;-53
2022/01/21 08:02:54;;;;;;;10.73;2.42;;;;;;;1.51;88.20;103623.03;5042584;28;20425;-53
2022/01/21 08:05:19;;;;;;;17.10;2.67;;;;;;;1.59;88.15;103618.19;5042187;28;20067;-52
2022/01/21 08:07:44;;;;;;;21.10;3.70;;;;;;;1.72;87.90;103617.06;5042861;28;20170;-54
2022/01/21 08:10:10;;;;;;;16.13;2.95;;;;;;;1.82;87.56;103617.53;5042945;28;20368;-54
2022/01/21 08:12:35;;;;;;;10.20;3.03;;;;;;;1.82;87.54;103618.44;5042059;28;20517;-53
2022/01/21 08:15:00;;;;;;;14.68;3.08;;;;;;;1.86;87.59;103627.25;5034630;28;20483;-56
2022/01/21 08:17:29;;;;;;;15.48;3.15;;;;;;;2.01;87.80;103630.59;5035142;28;20036;-58
2022/01/21 08:19:55;;;;;;;7.97;2.22;;;;;;;2.11;87.59;103636.22;5036155;28;20031;-53
2022/01/21 08:22:22;;;;;;;19.98;2.78;;;;;;;2.23;87.25;103638.50;5040353;28;20390;-56
2022/01/21 08:24:48;;;;;;;17.58;2.85;;;;;;;2.36;86.87;103638.25;5041444;28;20063;-57
2022/01/21 08:27:14;;;;;;;12.48;2.38;;;;;;;2.50;86.39;103638.00;5040023;28;20483;-56
2022/01/21 08:29:40;;;;;;;14.27;2.40;;;;;;;2.58;86.03;103625.28;5041945;28;20024;-54
2022/01/21 08:32:05;;;;;;;15.43;2.20;;;;;;;2.68;85.64;103632.69;5041663;28;20024;-53
2022/01/21 08:34:34;;;;;;;16.63;2.65;;;;;;;2.74;84.82;103629.50;5041940;28;20145;-52
2022/01/21 08:37:02;;;;;;;10.85;2.28;;;;;;;2.82;84.08;103632.41;5041065;28;20338;-54
2022/01/21 08:39:28;;;;;;;17.90;2.88;;;;;;;2.90;83.74;103623.25;5028609;28;20039;-54
2022/01/21 08:41:53;;;;;;;14.93;2.90;;;;;;;2.93;83.36;103627.69;5039535;28;20040;-54
2022/01/21 08:44:19;;;;;;;18.75;2.88;;;;;;;3.05;83.80;103611.69;5041020;28;20029;-55
2022/01/21 08:46:44;;;;;;;12.23;2.50;;;;;;;3.17;83.11;103609.59;5042320;28;20068;-57
2022/01/21 08:49:09;;;;;;;18.40;2.30;;;;;;;3.31;82.32;103606.69;5043002;28;20116;-50
2022/01/21 08:51:52;;;;;;;9.05;2.22;;;;;;;3.41;81.46;103601.03;5024264;28;20536;-54
2022/01/21 08:54:18;;;;;;;17.40;2.17;;;;;;;3.52;80.28;103604.94;5043749;28;20082;-54
2022/01/21 08:56:45;;;;;;;15.98;1.92;;;;;;;3.67;79.79;103598.56;5043124;28;20091;-52
2022/01/21 08:59:10;;;;;;;10.65;1.90;;;;;;;3.76;79.55;103606.75;5032766;28;20057;-57
2022/01/21 09:01:35;;;;;;;15.52;2.13;;;;;;;3.82;79.64;103598.28;5015240;28;20510;-55
2022/01/21 09:04:00;;;;;;;22.80;3.17;;;;;;;3.93;79.68;103596.09;5028830;28;20543;-57
2022/01/21 09:06:28;;;;;;;13.95;1.92;;;;;;;4.04;79.63;103610.44;5027864;28;20070;-54
2022/01/21 09:08:55;;;;;;;9.90;1.55;;;;;;;4.21;79.23;103599.75;5036375;28;20020;-54
2022/01/21 09:11:20;;;;;;;7.55;1.38;;;;;;;4.33;78.91;103598.44;5044542;28;20459;-52
2022/01/21 09:13:46;;;;;;;14.25;2.60;;;;;;;4.38;78.92;103600.38;5039706;28;20029;-59
2022/01/21 09:16:11;;;;;;;11.00;1.98;;;;;;;4.50;78.67;103609.47;5043091;28;20103;-57
2022/01/21 09:21:17;;;;;;;12.20;2.38;;;;;;;4.64;78.62;103602.16;5039614;28;20024;-56
2022/01/21 09:23:47;;;;;;;12.93;2.13;;;;;;;4.75;78.39;103607.75;5041500;28;20055;-61
2022/01/21 09:26:12;;;;;;;11.40;2.03;;;;;;;4.86;78.16;103601.19;5039433;28;20020;-57
2022/01/21 09:28:38;;;;;;;15.05;2.25;;;;;;;4.95;77.78;103595.38;5029735;28;20021;-59
2022/01/21 09:31:03;;;;;;;14.45;2.08;;;;;;;5.04;77.57;103598.31;5033565;28;20557;-59
2022/01/21 09:33:28;;;;;;;10.02;1.85;;;;;;;5.09;77.68;103608.03;5031095;28;20028;-60
2022/01/21 09:35:54;;;;;;;12.65;1.90;;;;;;;5.12;77.64;103602.91;5031485;28;20025;-58
2022/01/21 09:38:20;;;;;;;11.70;2.00;;;;;;;5.20;77.81;103608.41;5029573;28;20390;-58
2022/01/21 09:40:47;;;;;;;19.73;2.33;;;;;;;5.24;77.54;103608.53;5025509;28;20036;-54
2022/01/21 09:43:13;;;;;;;14.75;2.00;;;;;;;5.31;77.66;103605.31;5025259;28;20044;-54
2022/01/21 09:45:39;;;;;;;16.25;2.20;;;;;;;5.40;77.34;103609.94;5029315;28;20131;-57
2022/01/21 09:48:06;;;;;;;13.65;2.10;;;;;;;5.44;77.22;103610.91;5026653;28;20116;-57
2022/01/21 09:50:32;;;;;;;10.60;1.48;;;;;;;5.38;77.73;103608.09;5024740;28;20020;-57
2022/01/21 09:52:58;;;;;;;8.32;1.55;;;;;;;5.44;77.81;103616.16;5028954;28;20052;-53
2022/01/21 09:55:23;;;;;;;17.80;3.17;;;;;;;5.46;78.03;103622.34;5023899;28;20521;-54
2022/01/21 09:57:52;;;;;;;12.68;1.73;;;;;;;5.51;78.44;103628.59;5031429;28;20563;-57
2022/01/21 10:00:18;;;;;;;8.50;1.38;;;;;;;5.61;78.46;103616.72;5024695;28;20793;-56
2022/01/21 10:02:45;;;;;;;14.20;1.70;;;;;;;5.74;78.29;103619.69;5028999;28;20103;-54
2022/01/21 10:05:11;;;;;;;6.90;1.25;;;;;;;5.88;77.88;103618.41;5008927;28;20040;-53
2022/01/21 10:07:40;;;;;;;7.78;1.33;;;;;;;5.97;77.65;103625.66;5026796;28;20029;-53
2022/01/21 10:10:09;;;;;;;5.07;1.30;;;;;;;6.01;77.76;103635.38;5007744;28;20395;-54
2022/01/21 10:12:36;;;;;;;7.15;1.15;;;;;;;6.05;77.67;103632.03;5025577;28;21072;-55
2022/01/21 10:15:03;;;;;;;7.80;1.30;;;;;;;6.04;78.21;103638.13;5029337;28;20912;-55
2022/01/21 10:17:28;;;;;;;13.32;1.42;;;;;;;6.16;77.93;103642.84;5034066;28;20032;-54
2022/01/21 10:19:53;;;;;;;10.85;1.50;;;;;;;6.30;77.55;103643.22;5017275;28;20017;-55
2022/01/21 10:22:23;;;;;;;13.50;1.63;;;;;;;6.47;77.23;103634.97;5013151;28;20523;-56
2022/01/21 10:25:00;;;;;;;13.27;1.60;;;;;;;6.61;76.66;103653.72;5044893;28;20028;-55
2022/01/21 10:27:33;;;;;;;13.45;1.80;;;;;;;6.64;76.59;103650.28;5026237;28;20074;-56
2022/01/21 10:30:00;;;;;;;17.60;2.75;;;;;;;6.57;76.70;103652.72;5046447;28;20075;-55
2022/01/21 10:32:52;;;;;;;16.77;2.20;;;;;;;6.53;76.93;103644.75;5026478;28;20265;-54
2022/01/21 10:35:23;;;;;;;11.63;1.90;;;;;;;6.55;76.98;103636.09;5042205;28;20041;-54
2022/01/21 10:37:49;;;;;;;11.98;1.95;;;;;;;6.59;76.77;103625.69;5044418;28;20059;-55
2022/01/21 10:40:16;;;;;;;9.65;1.98;;;;;;;6.59;76.51;103623.09;5044556;28;20395;-59
2022/01/21 10:42:41;;;;;;;12.90;1.65;;;;;;;6.62;76.70;103633.66;5045168;28;20047;-52
2022/01/21 10:45:08;;;;;;;15.27;1.65;;;;;;;6.70;76.13;103639.97;5044300;28;20443;-54
2022/01/21 10:47:46;;;;;;;14.32;2.42;;;;;;;6.67;75.25;103630.31;5045603;28;20123;-57
2022/01/21 10:50:14;;;;;;;14.38;2.10;;;;;;;6.60;75.59;103635.31;5027848;28;20038;-55
2022/01/21 10:52:45;;;;;;;18.67;2.35;;;;;;;6.68;74.82;103633.78;5043864;28;20040;-55
2022/01/21 10:55:38;;;;;;;11.77;2.10;;;;;;;6.75;75.09;103627.00;5035459;28;20111;-54
2022/01/21 10:58:04;;;;;;;17.88;2.20;;;;;;;6.78;74.85;103621.84;5034948;28;20105;-49
2022/01/21 11:00:30;;;;;;;10.40;1.70;;;;;;;6.86;74.75;103615.06;5032694;28;20256;-60
2022/01/21 11:02:55;;;;;;;12.18;1.67;;;;;;;6.90;74.66;103621.28;5034307;28;20562;-55
2022/01/21 11:05:21;;;;;;;14.13;1.95;;;;;;;6.71;74.69;103631.25;5041585;28;20036;-52
2022/01/21 11:07:47;;;;;;;11.70;2.08;;;;;;;6.77;74.22;103631.44;5044264;28;20094;-55
2022/01/21 11:10:40;;;;;;;20.90;1.92;;;;;;;6.79;74.27;103619.28;5045075;28;20036;-52
2022/01/21 11:13:11;;;;;;;10.43;1.95;;;;;;;6.97;74.18;103617.97;5044061;28;20045;-55
2022/01/21 11:15:40;;;;;;;15.82;1.50;;;;;;;7.13;72.58;103618.38;5042650;28;20047;-54
2022/01/21 11:18:08;;;;;;;11.00;2.00;;;;;;;7.15;72.40;103627.16;5044253;28;20480;-55
2022/01/21 11:20:39;;;;;;;19.67;1.85;;;;;;;7.30;70.99;103619.69;5042147;28;20646;-56
2022/01/21 11:23:05;;;;;;;12.13;1.58;;;;;;;7.43;70.34;103628.75;5042709;28;20054;-53
2022/01/21 11:25:39;;;;;;;11.73;1.75;;;;;;;7.44;70.17;103622.63;5043480;28;20017;-55
2022/01/21 11:28:05;;;;;;;12.40;1.67;;;;;;;7.45;69.13;103636.66;5043965;28;20036;-58
2022/01/21 11:30:30;;;;;;;11.45;1.55;;;;;;;7.41;69.73;103634.81;5043765;28;20048;-52
2022/01/21 11:32:56;;;;;;;10.32;2.03;;;;;;;7.27;69.48;103624.84;5043472;28;20024;-57
2022/01/21 11:35:22;;;;;;;19.48;2.15;;;;;;;7.23;70.29;103624.75;5042079;28;20112;-55
2022/01/21 11:37:47;;;;;;;8.38;1.58;;;;;;;7.32;70.16;103623.22;5042910;28;20036;-57
2022/01/21 11:40:13;;;;;;;11.18;2.00;;;;;;;7.25;69.54;103623.91;5026607;28;20021;-56
2022/01/21 11:42:38;;;;;;;20.60;2.05;;;;;;;7.31;69.67;103617.94;5025947;28;20050;-56
2022/01/21 11:45:18;;;;;;;14.50;2.30;;;;;;;7.28;70.37;103618.75;5037739;28;20414;-57
2022/01/21 11:48:01;;;;;;;16.75;2.00;;;;;;;7.06;71.04;103612.97;5034227;28;20839;-54
2022/01/21 11:50:29;;;;;;;17.88;2.55;;;;;;;6.87;73.10;103600.25;5046629;28;20035;-53
2022/01/21 11:52:55;;;;;;;14.15;2.17;;;;;;;6.70;74.17;103617.28;5057781;28;20474;-53
2022/01/21 11:55:50;;;;;;;17.98;2.90;;;;;;;6.52;75.07;103604.56;5043732;28;20035;-53
2022/01/21 11:58:21;;;;;;;16.55;2.25;;;;;;;6.53;75.55;103603.72;5033407;28;20041;-58
2022/01/21 12:00:50;;;;;;;17.00;2.50;;;;;;;6.57;76.23;103587.22;5035051;28;20025;-56
2022/01/21 12:03:17;;;;;;;8.30;1.87;;;;;;;6.75;75.72;103606.94;5030449;28;20033;-58
2022/01/21 12:05:43;;;;;;;25.17;2.55;;;;;;;6.74;75.90;103610.38;5048671;28;20040;-58
2022/01/21 12:08:08;;;;;;;25.25;2.70;;;;;;;6.63;76.17;103617.06;5050985;28;20025;-56
2022/01/21 12:10:44;;;;;;;24.15;2.63;;;;;;;6.64;76.00;103608.34;5050547;28;20200;-54
2022/01/21 12:13:14;;;;;;;26.05;2.90;;;;;;;6.62;75.99;103589.09;5050508;28;20075;-57